sensor_id;sensor_type;location;lat;lon;timestamp;P1;durP1;ratioP1;P2;durP2;ratioP2
55720;SDS011;41626;53.098;6.168;2023-04-01T00:02:18;7.20;;;6.60;;
55720;SDS011;41626;53.098;6.168;2023-04-01T00:04:43;6.90;;;6.27;;
55720;SDS011;41626;53.098;6.168;2023-04-01T00:07:09;7.30;;;6.60;;
55720;SDS011;41626;53.098;6.168;2023-04-01T00:09:35;6.68;;;6.07;;
55720;SDS011;41626;53.098;6.168;2023-04-01T00:12:01;7.18;;;6.05;;
55720;SDS011;41626;53.098;6.168;2023-04-01T00:14:27;7.03;;;6.32;;
55720;SDS011;41626;53.098;6.168;2023-04-01T00:16:54;7.60;;;6.90;;
55720;SDS011;41626;53.098;6.168;2023-04-01T00:19:19;7.00;;;6.40;;
55720;SDS011;41626;53.098;6.168;2023-04-01T00:21:45;7.55;;;6.78;;
55720;SDS011;41626;53.098;6.168;2023-04-01T00:24:11;7.88;;;7.05;;
55720;SDS011;41626;53.098;6.168;2023-04-01T00:26:37;7.90;;;7.10;;
55720;SDS011;41626;53.098;6.168;2023-04-01T00:29:02;7.63;;;6.95;;
55720;SDS011;41626;53.098;6.168;2023-04-01T00:31:28;8.20;;;7.13;;
55720;SDS011;41626;53.098;6.168;2023-04-01T00:33:54;7.75;;;7.05;;
55720;SDS011;41626;53.098;6.168;2023-04-01T00:36:21;8.23;;;7.50;;
55720;SDS011;41626;53.098;6.168;2023-04-01T00:38:48;8.35;;;7.63;;
55720;SDS011;41626;53.098;6.168;2023-04-01T00:41:14;7.50;;;6.80;;
55720;SDS011;41626;53.098;6.168;2023-04-01T00:43:46;7.15;;;6.50;;
55720;SDS011;41626;53.098;6.168;2023-04-01T00:46:14;7.35;;;6.65;;
55720;SDS011;41626;53.098;6.168;2023-04-01T00:48:42;7.78;;;7.03;;
55720;SDS011;41626;53.098;6.168;2023-04-01T00:51:14;7.57;;;6.82;;
55720;SDS011;41626;53.098;6.168;2023-04-01T00:53:44;10.63;;;7.50;;
55720;SDS011;41626;53.098;6.168;2023-04-01T00:56:24;7.82;;;7.00;;
55720;SDS011;41626;53.098;6.168;2023-04-01T00:58:58;7.53;;;6.80;;
55720;SDS011;41626;53.098;6.168;2023-04-01T01:01:26;7.78;;;6.97;;
55720;SDS011;41626;53.098;6.168;2023-04-01T01:03:54;7.53;;;6.82;;
55720;SDS011;41626;53.098;6.168;2023-04-01T01:11:41;8.10;;;6.80;;
55720;SDS011;41626;53.098;6.168;2023-04-01T01:16:54;7.40;;;6.60;;
55720;SDS011;41626;53.098;6.168;2023-04-01T01:19:47;7.20;;;6.28;;
55720;SDS011;41626;53.098;6.168;2023-04-01T01:23:01;8.40;;;6.82;;
55720;SDS011;41626;53.098;6.168;2023-04-01T01:25:41;8.77;;;7.32;;
55720;SDS011;41626;53.098;6.168;2023-04-01T01:28:41;7.00;;;6.30;;
55720;SDS011;41626;53.098;6.168;2023-04-01T01:36:32;7.15;;;6.45;;
55720;SDS011;41626;53.098;6.168;2023-04-01T01:39:05;7.85;;;7.15;;
55720;SDS011;41626;53.098;6.168;2023-04-01T01:41:32;9.30;;;7.25;;
55720;SDS011;41626;53.098;6.168;2023-04-01T01:44:01;7.30;;;6.70;;
55720;SDS011;41626;53.098;6.168;2023-04-01T01:46:31;7.40;;;6.68;;
55720;SDS011;41626;53.098;6.168;2023-04-01T01:48:57;6.50;;;6.00;;
55720;SDS011;41626;53.098;6.168;2023-04-01T01:51:24;6.47;;;5.88;;
55720;SDS011;41626;53.098;6.168;2023-04-01T01:53:52;6.47;;;5.88;;
55720;SDS011;41626;53.098;6.168;2023-04-01T01:56:18;7.05;;;5.43;;
55720;SDS011;41626;53.098;6.168;2023-04-01T01:58:52;6.97;;;6.30;;
55720;SDS011;41626;53.098;6.168;2023-04-01T02:01:24;7.75;;;6.95;;
55720;SDS011;41626;53.098;6.168;2023-04-01T02:03:52;8.38;;;7.20;;
55720;SDS011;41626;53.098;6.168;2023-04-01T02:06:21;8.45;;;7.63;;
55720;SDS011;41626;53.098;6.168;2023-04-01T02:08:52;10.70;;;8.23;;
55720;SDS011;41626;53.098;6.168;2023-04-01T02:11:41;6.65;;;6.05;;
55720;SDS011;41626;53.098;6.168;2023-04-01T02:14:19;5.72;;;4.80;;
55720;SDS011;41626;53.098;6.168;2023-04-01T02:17:07;3.78;;;3.42;;
55720;SDS011;41626;53.098;6.168;2023-04-01T02:19:38;4.47;;;3.60;;
55720;SDS011;41626;53.098;6.168;2023-04-01T02:22:09;4.40;;;3.70;;
55720;SDS011;41626;53.098;6.168;2023-04-01T02:24:38;3.90;;;2.83;;
55720;SDS011;41626;53.098;6.168;2023-04-01T02:27:06;4.20;;;2.87;;
55720;SDS011;41626;53.098;6.168;2023-04-01T02:29:33;3.95;;;2.90;;
55720;SDS011;41626;53.098;6.168;2023-04-01T02:31:59;2.88;;;2.67;;
55720;SDS011;41626;53.098;6.168;2023-04-01T02:34:25;3.33;;;3.03;;
55720;SDS011;41626;53.098;6.168;2023-04-01T02:36:51;3.78;;;3.40;;
55720;SDS011;41626;53.098;6.168;2023-04-01T02:39:18;5.65;;;5.13;;
55720;SDS011;41626;53.098;6.168;2023-04-01T02:41:45;7.35;;;6.72;;
55720;SDS011;41626;53.098;6.168;2023-04-01T02:44:12;8.57;;;7.78;;
55720;SDS011;41626;53.098;6.168;2023-04-01T02:46:39;8.68;;;7.88;;
55720;SDS011;41626;53.098;6.168;2023-04-01T02:49:05;9.00;;;7.70;;
55720;SDS011;41626;53.098;6.168;2023-04-01T02:51:32;10.68;;;9.68;;
55720;SDS011;41626;53.098;6.168;2023-04-01T02:53:58;8.05;;;7.25;;
55720;SDS011;41626;53.098;6.168;2023-04-01T02:56:23;9.30;;;8.30;;
55720;SDS011;41626;53.098;6.168;2023-04-01T02:58:50;8.95;;;8.18;;
55720;SDS011;41626;53.098;6.168;2023-04-01T03:01:16;8.70;;;7.90;;
55720;SDS011;41626;53.098;6.168;2023-04-01T03:03:41;9.17;;;8.27;;
55720;SDS011;41626;53.098;6.168;2023-04-01T03:06:08;9.75;;;8.65;;
55720;SDS011;41626;53.098;6.168;2023-04-01T03:08:35;9.05;;;8.15;;
55720;SDS011;41626;53.098;6.168;2023-04-01T03:11:01;9.65;;;8.60;;
55720;SDS011;41626;53.098;6.168;2023-04-01T03:13:27;9.37;;;8.47;;
55720;SDS011;41626;53.098;6.168;2023-04-01T03:15:53;13.40;;;8.53;;
55720;SDS011;41626;53.098;6.168;2023-04-01T03:18:19;10.00;;;8.80;;
55720;SDS011;41626;53.098;6.168;2023-04-01T03:20:45;9.38;;;8.48;;
55720;SDS011;41626;53.098;6.168;2023-04-01T03:23:11;10.02;;;9.02;;
55720;SDS011;41626;53.098;6.168;2023-04-01T03:25:36;10.77;;;9.40;;
55720;SDS011;41626;53.098;6.168;2023-04-01T03:28:02;11.38;;;9.15;;
55720;SDS011;41626;53.098;6.168;2023-04-01T03:30:28;12.15;;;9.20;;
55720;SDS011;41626;53.098;6.168;2023-04-01T03:32:57;10.38;;;9.27;;
55720;SDS011;41626;53.098;6.168;2023-04-01T03:35:24;10.27;;;9.27;;
55720;SDS011;41626;53.098;6.168;2023-04-01T03:37:51;11.40;;;10.00;;
55720;SDS011;41626;53.098;6.168;2023-04-01T03:40:17;11.10;;;10.02;;
55720;SDS011;41626;53.098;6.168;2023-04-01T03:42:42;11.57;;;10.17;;
55720;SDS011;41626;53.098;6.168;2023-04-01T03:45:08;12.63;;;10.00;;
55720;SDS011;41626;53.098;6.168;2023-04-01T03:47:34;11.93;;;10.40;;
55720;SDS011;41626;53.098;6.168;2023-04-01T03:50:00;11.85;;;10.70;;
55720;SDS011;41626;53.098;6.168;2023-04-01T03:52:26;12.02;;;10.93;;
55720;SDS011;41626;53.098;6.168;2023-04-01T03:54:52;13.68;;;10.93;;
55720;SDS011;41626;53.098;6.168;2023-04-01T03:57:18;12.55;;;10.90;;
55720;SDS011;41626;53.098;6.168;2023-04-01T03:59:43;11.85;;;10.45;;
55720;SDS011;41626;53.098;6.168;2023-04-01T04:02:09;13.02;;;11.00;;
55720;SDS011;41626;53.098;6.168;2023-04-01T04:04:35;12.65;;;11.35;;
55720;SDS011;41626;53.098;6.168;2023-04-01T04:07:00;10.93;;;9.82;;
55720;SDS011;41626;53.098;6.168;2023-04-01T04:09:26;11.48;;;10.27;;
55720;SDS011;41626;53.098;6.168;2023-04-01T04:11:52;13.97;;;11.43;;
55720;SDS011;41626;53.098;6.168;2023-04-01T04:14:17;12.13;;;10.93;;
55720;SDS011;41626;53.098;6.168;2023-04-01T04:16:43;12.30;;;10.87;;
55720;SDS011;41626;53.098;6.168;2023-04-01T04:19:09;12.60;;;11.40;;
55720;SDS011;41626;53.098;6.168;2023-04-01T04:21:34;14.27;;;12.35;;
55720;SDS011;41626;53.098;6.168;2023-04-01T04:24:00;15.13;;;12.20;;
55720;SDS011;41626;53.098;6.168;2023-04-01T04:26:27;13.20;;;11.80;;
55720;SDS011;41626;53.098;6.168;2023-04-01T04:28:53;14.10;;;12.32;;
55720;SDS011;41626;53.098;6.168;2023-04-01T04:31:20;13.50;;;12.20;;
55720;SDS011;41626;53.098;6.168;2023-04-01T04:33:48;14.32;;;12.82;;
55720;SDS011;41626;53.098;6.168;2023-04-01T04:36:14;14.05;;;12.55;;
55720;SDS011;41626;53.098;6.168;2023-04-01T04:38:40;15.52;;;13.95;;
55720;SDS011;41626;53.098;6.168;2023-04-01T04:41:12;16.13;;;13.88;;
55720;SDS011;41626;53.098;6.168;2023-04-01T04:43:39;14.67;;;13.03;;
55720;SDS011;41626;53.098;6.168;2023-04-01T04:46:06;12.60;;;11.10;;
55720;SDS011;41626;53.098;6.168;2023-04-01T04:48:33;18.55;;;13.63;;
55720;SDS011;41626;53.098;6.168;2023-04-01T04:50:59;15.55;;;12.52;;
55720;SDS011;41626;53.098;6.168;2023-04-01T04:53:25;13.82;;;11.85;;
55720;SDS011;41626;53.098;6.168;2023-04-01T04:55:51;14.00;;;12.02;;
55720;SDS011;41626;53.098;6.168;2023-04-01T04:58:17;16.05;;;12.63;;
55720;SDS011;41626;53.098;6.168;2023-04-01T05:00:43;17.75;;;14.90;;
55720;SDS011;41626;53.098;6.168;2023-04-01T05:03:09;16.47;;;14.77;;
55720;SDS011;41626;53.098;6.168;2023-04-01T05:05:35;19.92;;;16.88;;
55720;SDS011;41626;53.098;6.168;2023-04-01T05:08:01;20.60;;;15.57;;
55720;SDS011;41626;53.098;6.168;2023-04-01T05:10:27;22.13;;;17.08;;
55720;SDS011;41626;53.098;6.168;2023-04-01T05:12:52;20.65;;;17.05;;
55720;SDS011;41626;53.098;6.168;2023-04-01T05:15:18;23.92;;;16.98;;
55720;SDS011;41626;53.098;6.168;2023-04-01T05:17:44;24.30;;;18.00;;
55720;SDS011;41626;53.098;6.168;2023-04-01T05:20:11;21.13;;;17.38;;
55720;SDS011;41626;53.098;6.168;2023-04-01T05:22:38;24.85;;;18.17;;
55720;SDS011;41626;53.098;6.168;2023-04-01T05:25:03;24.95;;;18.02;;
55720;SDS011;41626;53.098;6.168;2023-04-01T05:27:29;21.20;;;17.20;;
55720;SDS011;41626;53.098;6.168;2023-04-01T05:29:55;25.85;;;18.58;;
55720;SDS011;41626;53.098;6.168;2023-04-01T05:32:21;26.70;;;18.98;;
55720;SDS011;41626;53.098;6.168;2023-04-01T05:34:49;28.65;;;20.05;;
55720;SDS011;41626;53.098;6.168;2023-04-01T05:37:16;25.65;;;19.73;;
55720;SDS011;41626;53.098;6.168;2023-04-01T05:39:41;27.80;;;18.83;;
55720;SDS011;41626;53.098;6.168;2023-04-01T05:42:07;30.87;;;18.67;;
55720;SDS011;41626;53.098;6.168;2023-04-01T05:44:34;26.95;;;18.55;;
55720;SDS011;41626;53.098;6.168;2023-04-01T05:47:00;25.67;;;18.25;;
55720;SDS011;41626;53.098;6.168;2023-04-01T05:49:26;28.13;;;18.15;;
55720;SDS011;41626;53.098;6.168;2023-04-01T05:51:52;26.25;;;19.20;;
55720;SDS011;41626;53.098;6.168;2023-04-01T05:54:18;24.90;;;19.27;;
55720;SDS011;41626;53.098;6.168;2023-04-01T05:56:44;26.35;;;19.63;;
55720;SDS011;41626;53.098;6.168;2023-04-01T05:59:10;28.60;;;20.23;;
55720;SDS011;41626;53.098;6.168;2023-04-01T06:01:36;28.45;;;19.23;;
55720;SDS011;41626;53.098;6.168;2023-04-01T06:04:02;29.05;;;20.05;;
55720;SDS011;41626;53.098;6.168;2023-04-01T06:06:29;30.03;;;20.33;;
55720;SDS011;41626;53.098;6.168;2023-04-01T06:08:57;31.88;;;20.65;;
55720;SDS011;41626;53.098;6.168;2023-04-01T06:11:37;31.85;;;19.98;;
55720;SDS011;41626;53.098;6.168;2023-04-01T06:14:40;31.23;;;20.60;;
55720;SDS011;41626;53.098;6.168;2023-04-01T06:23:14;31.58;;;19.95;;
55720;SDS011;41626;53.098;6.168;2023-04-01T06:28:48;26.33;;;17.83;;
55720;SDS011;41626;53.098;6.168;2023-04-01T06:34:27;21.02;;;13.68;;
55720;SDS011;41626;53.098;6.168;2023-04-01T06:39:42;18.33;;;13.57;;
55720;SDS011;41626;53.098;6.168;2023-04-01T06:50:46;14.23;;;10.57;;
55720;SDS011;41626;53.098;6.168;2023-04-01T06:56:14;14.23;;;10.68;;
55720;SDS011;41626;53.098;6.168;2023-04-01T06:58:47;11.32;;;9.70;;
55720;SDS011;41626;53.098;6.168;2023-04-01T07:01:18;13.07;;;9.85;;
55720;SDS011;41626;53.098;6.168;2023-04-01T07:04:00;11.45;;;9.13;;
55720;SDS011;41626;53.098;6.168;2023-04-01T07:06:38;9.82;;;8.05;;
55720;SDS011;41626;53.098;6.168;2023-04-01T07:09:26;9.93;;;8.30;;
55720;SDS011;41626;53.098;6.168;2023-04-01T07:11:59;9.85;;;8.27;;
55720;SDS011;41626;53.098;6.168;2023-04-01T07:14:35;10.75;;;8.38;;
55720;SDS011;41626;53.098;6.168;2023-04-01T07:17:06;11.75;;;9.75;;
55720;SDS011;41626;53.098;6.168;2023-04-01T07:24:56;14.45;;;12.63;;
55720;SDS011;41626;53.098;6.168;2023-04-01T07:27:26;16.25;;;12.30;;
55720;SDS011;41626;53.098;6.168;2023-04-01T07:29:51;17.83;;;13.82;;
55720;SDS011;41626;53.098;6.168;2023-04-01T07:46:26;16.83;;;15.13;;
55720;SDS011;41626;53.098;6.168;2023-04-01T08:10:30;18.83;;;16.92;;
55720;SDS011;41626;53.098;6.168;2023-04-01T08:21:16;16.77;;;15.35;;
55720;SDS011;41626;53.098;6.168;2023-04-01T08:23:49;16.80;;;15.30;;
55720;SDS011;41626;53.098;6.168;2023-04-01T08:29:15;15.77;;;14.27;;
55720;SDS011;41626;53.098;6.168;2023-04-01T08:34:51;13.90;;;12.57;;
55720;SDS011;41626;53.098;6.168;2023-04-01T08:37:32;11.50;;;10.50;;
55720;SDS011;41626;53.098;6.168;2023-04-01T08:40:08;12.55;;;11.45;;
55720;SDS011;41626;53.098;6.168;2023-04-01T08:43:07;12.23;;;11.13;;
55720;SDS011;41626;53.098;6.168;2023-04-01T08:49:00;13.30;;;12.13;;
55720;SDS011;41626;53.098;6.168;2023-04-01T08:51:51;14.90;;;13.50;;
55720;SDS011;41626;53.098;6.168;2023-04-01T08:57:15;16.00;;;14.50;;
55720;SDS011;41626;53.098;6.168;2023-04-01T09:10:48;18.58;;;16.77;;
55720;SDS011;41626;53.098;6.168;2023-04-01T09:21:36;15.23;;;13.82;;
55720;SDS011;41626;53.098;6.168;2023-04-01T09:39:25;8.52;;;7.63;;
55720;SDS011;41626;53.098;6.168;2023-04-01T09:54:50;8.32;;;7.38;;
55720;SDS011;41626;53.098;6.168;2023-04-01T10:00:27;8.05;;;6.15;;
55720;SDS011;41626;53.098;6.168;2023-04-01T10:09:55;8.00;;;5.68;;
55720;SDS011;41626;53.098;6.168;2023-04-01T10:15:52;6.10;;;5.37;;
55720;SDS011;41626;53.098;6.168;2023-04-01T10:37:54;5.68;;;4.65;;
55720;SDS011;41626;53.098;6.168;2023-04-01T10:54:36;6.05;;;4.38;;
55720;SDS011;41626;53.098;6.168;2023-04-01T11:02:56;3.47;;;3.15;;
55720;SDS011;41626;53.098;6.168;2023-04-01T11:05:35;4.78;;;3.20;;
55720;SDS011;41626;53.098;6.168;2023-04-01T11:11:09;5.30;;;3.30;;
55720;SDS011;41626;53.098;6.168;2023-04-01T11:19:32;3.47;;;3.08;;
55720;SDS011;41626;53.098;6.168;2023-04-01T11:22:30;3.33;;;2.80;;
55720;SDS011;41626;53.098;6.168;2023-04-01T11:28:20;3.90;;;3.00;;
55720;SDS011;41626;53.098;6.168;2023-04-01T11:33:19;4.28;;;2.38;;
55720;SDS011;41626;53.098;6.168;2023-04-01T11:36:10;3.83;;;2.20;;
55720;SDS011;41626;53.098;6.168;2023-04-01T11:44:42;2.92;;;2.33;;
55720;SDS011;41626;53.098;6.168;2023-04-01T11:47:22;2.70;;;2.28;;
55720;SDS011;41626;53.098;6.168;2023-04-01T11:50:10;3.65;;;1.95;;
55720;SDS011;41626;53.098;6.168;2023-04-01T11:53:04;2.50;;;2.00;;
55720;SDS011;41626;53.098;6.168;2023-04-01T11:55:38;2.53;;;2.08;;
55720;SDS011;41626;53.098;6.168;2023-04-01T11:58:35;2.50;;;2.30;;
55720;SDS011;41626;53.098;6.168;2023-04-01T12:06:59;3.08;;;2.33;;
55720;SDS011;41626;53.098;6.168;2023-04-01T12:12:46;2.42;;;2.10;;
55720;SDS011;41626;53.098;6.168;2023-04-01T12:29:07;2.25;;;2.05;;
55720;SDS011;41626;53.098;6.168;2023-04-01T12:46:26;4.32;;;1.92;;
55720;SDS011;41626;53.098;6.168;2023-04-01T12:55:01;2.33;;;1.85;;
55720;SDS011;41626;53.098;6.168;2023-04-01T13:11:08;2.40;;;1.45;;
55720;SDS011;41626;53.098;6.168;2023-04-01T13:19:28;1.90;;;1.48;;
55720;SDS011;41626;53.098;6.168;2023-04-01T13:27:14;2.00;;;1.73;;
55720;SDS011;41626;53.098;6.168;2023-04-01T13:41:39;1.65;;;1.45;;
55720;SDS011;41626;53.098;6.168;2023-04-01T13:44:36;1.80;;;1.52;;
55720;SDS011;41626;53.098;6.168;2023-04-01T13:47:12;1.80;;;1.50;;
55720;SDS011;41626;53.098;6.168;2023-04-01T13:50:24;1.50;;;1.40;;
55720;SDS011;41626;53.098;6.168;2023-04-01T13:56:01;2.30;;;1.55;;
55720;SDS011;41626;53.098;6.168;2023-04-01T14:07:08;1.92;;;1.65;;
55720;SDS011;41626;53.098;6.168;2023-04-01T14:12:25;2.10;;;1.50;;
55720;SDS011;41626;53.098;6.168;2023-04-01T14:15:07;2.60;;;1.40;;
55720;SDS011;41626;53.098;6.168;2023-04-01T14:34:00;3.60;;;1.23;;
55720;SDS011;41626;53.098;6.168;2023-04-01T14:48:15;1.85;;;0.90;;
55720;SDS011;41626;53.098;6.168;2023-04-01T14:50:45;3.47;;;1.40;;
55720;SDS011;41626;53.098;6.168;2023-04-01T14:55:57;1.48;;;1.15;;
55720;SDS011;41626;53.098;6.168;2023-04-01T14:58:25;2.35;;;2.15;;
55720;SDS011;41626;53.098;6.168;2023-04-01T15:03:45;2.15;;;1.40;;
55720;SDS011;41626;53.098;6.168;2023-04-01T15:06:31;1.50;;;1.10;;
55720;SDS011;41626;53.098;6.168;2023-04-01T15:17:20;1.60;;;0.95;;
55720;SDS011;41626;53.098;6.168;2023-04-01T15:25:24;2.22;;;1.05;;
55720;SDS011;41626;53.098;6.168;2023-04-01T15:30:48;3.28;;;1.65;;
55720;SDS011;41626;53.098;6.168;2023-04-01T15:33:32;1.67;;;1.43;;
55720;SDS011;41626;53.098;6.168;2023-04-01T15:47:58;2.38;;;1.80;;
55720;SDS011;41626;53.098;6.168;2023-04-01T16:01:53;3.03;;;1.90;;
55720;SDS011;41626;53.098;6.168;2023-04-01T16:07:30;4.97;;;2.83;;
55720;SDS011;41626;53.098;6.168;2023-04-01T16:10:21;3.38;;;2.40;;
55720;SDS011;41626;53.098;6.168;2023-04-01T16:20:55;4.45;;;2.85;;
55720;SDS011;41626;53.098;6.168;2023-04-01T16:26:13;5.78;;;3.05;;
55720;SDS011;41626;53.098;6.168;2023-04-01T16:28:55;4.78;;;2.90;;
55720;SDS011;41626;53.098;6.168;2023-04-01T16:31:35;6.50;;;4.68;;
55720;SDS011;41626;53.098;6.168;2023-04-01T16:47:58;7.03;;;4.03;;
55720;SDS011;41626;53.098;6.168;2023-04-01T16:50:51;6.00;;;3.40;;
55720;SDS011;41626;53.098;6.168;2023-04-01T16:53:26;5.47;;;4.38;;
55720;SDS011;41626;53.098;6.168;2023-04-01T16:56:02;6.45;;;4.28;;
55720;SDS011;41626;53.098;6.168;2023-04-01T16:58:36;5.40;;;3.73;;
55720;SDS011;41626;53.098;6.168;2023-04-01T17:01:16;5.00;;;3.70;;
55720;SDS011;41626;53.098;6.168;2023-04-01T17:03:50;6.37;;;3.70;;
55720;SDS011;41626;53.098;6.168;2023-04-01T17:07:05;7.55;;;4.35;;
55720;SDS011;41626;53.098;6.168;2023-04-01T17:11:57;9.20;;;5.30;;
55720;SDS011;41626;53.098;6.168;2023-04-01T17:25:34;6.80;;;4.18;;
55720;SDS011;41626;53.098;6.168;2023-04-01T17:36:22;9.35;;;5.90;;
55720;SDS011;41626;53.098;6.168;2023-04-01T17:42:23;9.88;;;5.72;;
55720;SDS011;41626;53.098;6.168;2023-04-01T17:45:10;8.82;;;5.38;;
55720;SDS011;41626;53.098;6.168;2023-04-01T17:53:42;8.30;;;4.97;;
55720;SDS011;41626;53.098;6.168;2023-04-01T17:58:44;10.27;;;5.53;;
55720;SDS011;41626;53.098;6.168;2023-04-01T18:04:41;6.57;;;4.43;;
55720;SDS011;41626;53.098;6.168;2023-04-01T18:18:19;8.13;;;5.20;;
55720;SDS011;41626;53.098;6.168;2023-04-01T18:23:56;9.05;;;5.90;;
55720;SDS011;41626;53.098;6.168;2023-04-01T18:26:35;10.53;;;5.77;;
55720;SDS011;41626;53.098;6.168;2023-04-01T18:29:12;7.40;;;5.57;;
55720;SDS011;41626;53.098;6.168;2023-04-01T18:32:07;10.10;;;5.55;;
55720;SDS011;41626;53.098;6.168;2023-04-01T18:37:27;11.00;;;5.72;;
55720;SDS011;41626;53.098;6.168;2023-04-01T18:45:28;9.68;;;6.05;;
55720;SDS011;41626;53.098;6.168;2023-04-01T18:51:13;9.73;;;6.00;;
55720;SDS011;41626;53.098;6.168;2023-04-01T19:04:52;7.88;;;5.22;;
55720;SDS011;41626;53.098;6.168;2023-04-01T19:13:39;10.30;;;5.97;;
55720;SDS011;41626;53.098;6.168;2023-04-01T19:16:04;10.43;;;5.30;;
55720;SDS011;41626;53.098;6.168;2023-04-01T19:18:49;9.70;;;6.00;;
55720;SDS011;41626;53.098;6.168;2023-04-01T19:34:57;12.60;;;6.15;;
55720;SDS011;41626;53.098;6.168;2023-04-01T19:37:50;13.45;;;6.38;;
55720;SDS011;41626;53.098;6.168;2023-04-01T19:50:50;8.60;;;6.00;;
55720;SDS011;41626;53.098;6.168;2023-04-01T19:53:28;11.97;;;4.73;;
55720;SDS011;41626;53.098;6.168;2023-04-01T19:56:22;10.68;;;6.05;;
55720;SDS011;41626;53.098;6.168;2023-04-01T20:02:00;13.82;;;6.15;;
55720;SDS011;41626;53.098;6.168;2023-04-01T20:04:40;11.13;;;6.45;;
55720;SDS011;41626;53.098;6.168;2023-04-01T20:07:10;9.00;;;5.80;;
55720;SDS011;41626;53.098;6.168;2023-04-01T20:09:58;8.77;;;5.60;;
55720;SDS011;41626;53.098;6.168;2023-04-01T20:12:42;8.38;;;5.15;;
55720;SDS011;41626;53.098;6.168;2023-04-01T20:15:30;9.43;;;5.80;;
55720;SDS011;41626;53.098;6.168;2023-04-01T20:17:59;10.43;;;6.00;;
55720;SDS011;41626;53.098;6.168;2023-04-01T20:20:29;11.55;;;6.20;;
55720;SDS011;41626;53.098;6.168;2023-04-01T20:23:07;12.60;;;6.38;;
55720;SDS011;41626;53.098;6.168;2023-04-01T20:25:54;10.35;;;5.95;;
55720;SDS011;41626;53.098;6.168;2023-04-01T20:28:32;11.10;;;5.70;;
55720;SDS011;41626;53.098;6.168;2023-04-01T20:42:40;7.75;;;5.55;;
55720;SDS011;41626;53.098;6.168;2023-04-01T20:51:24;20.05;;;6.82;;
55720;SDS011;41626;53.098;6.168;2023-04-01T20:56:44;11.23;;;5.38;;
55720;SDS011;41626;53.098;6.168;2023-04-01T21:02:16;10.13;;;5.28;;
55720;SDS011;41626;53.098;6.168;2023-04-01T21:11:01;14.15;;;6.45;;
55720;SDS011;41626;53.098;6.168;2023-04-01T21:19:33;8.90;;;4.72;;
55720;SDS011;41626;53.098;6.168;2023-04-01T21:30:47;8.88;;;4.40;;
55720;SDS011;41626;53.098;6.168;2023-04-01T21:33:49;7.95;;;4.00;;
55720;SDS011;41626;53.098;6.168;2023-04-01T21:39:50;8.57;;;4.40;;
55720;SDS011;41626;53.098;6.168;2023-04-01T21:53:31;11.15;;;5.05;;
55720;SDS011;41626;53.098;6.168;2023-04-01T22:07:12;10.93;;;4.80;;
55720;SDS011;41626;53.098;6.168;2023-04-01T22:15:14;15.07;;;5.18;;
55720;SDS011;41626;53.098;6.168;2023-04-01T22:20:48;10.88;;;5.25;;
55720;SDS011;41626;53.098;6.168;2023-04-01T22:23:20;9.65;;;3.63;;
55720;SDS011;41626;53.098;6.168;2023-04-01T22:28:38;9.73;;;4.35;;
55720;SDS011;41626;53.098;6.168;2023-04-01T22:31:08;7.17;;;4.07;;
55720;SDS011;41626;53.098;6.168;2023-04-01T22:36:48;7.60;;;4.35;;
55720;SDS011;41626;53.098;6.168;2023-04-01T22:39:29;6.15;;;3.80;;
55720;SDS011;41626;53.098;6.168;2023-04-01T22:49:38;13.65;;;5.30;;
55720;SDS011;41626;53.098;6.168;2023-04-01T22:52:17;9.65;;;5.28;;
55720;SDS011;41626;53.098;6.168;2023-04-01T22:54:46;9.77;;;4.75;;
55720;SDS011;41626;53.098;6.168;2023-04-01T22:57:28;6.95;;;4.50;;
55720;SDS011;41626;53.098;6.168;2023-04-01T23:02:46;7.85;;;4.13;;
55720;SDS011;41626;53.098;6.168;2023-04-01T23:05:27;13.63;;;4.93;;
55720;SDS011;41626;53.098;6.168;2023-04-01T23:08:07;8.50;;;3.85;;
55720;SDS011;41626;53.098;6.168;2023-04-01T23:11:04;7.73;;;3.70;;
55720;SDS011;41626;53.098;6.168;2023-04-01T23:13:39;9.45;;;3.97;;
55720;SDS011;41626;53.098;6.168;2023-04-01T23:16:10;8.90;;;3.70;;
55720;SDS011;41626;53.098;6.168;2023-04-01T23:18:42;10.05;;;3.75;;
55720;SDS011;41626;53.098;6.168;2023-04-01T23:21:15;9.18;;;3.30;;
55720;SDS011;41626;53.098;6.168;2023-04-01T23:26:39;7.43;;;3.35;;
55720;SDS011;41626;53.098;6.168;2023-04-01T23:29:27;7.72;;;2.92;;
55720;SDS011;41626;53.098;6.168;2023-04-01T23:32:00;13.55;;;3.85;;
55720;SDS011;41626;53.098;6.168;2023-04-01T23:34:30;14.15;;;4.22;;
55720;SDS011;41626;53.098;6.168;2023-04-01T23:37:02;8.90;;;3.83;;
55720;SDS011;41626;53.098;6.168;2023-04-01T23:39:36;7.18;;;2.60;;
55720;SDS011;41626;53.098;6.168;2023-04-01T23:42:23;5.55;;;2.75;;
55720;SDS011;41626;53.098;6.168;2023-04-01T23:45:16;11.02;;;3.70;;
55720;SDS011;41626;53.098;6.168;2023-04-01T23:47:45;7.28;;;3.20;;
55720;SDS011;41626;53.098;6.168;2023-04-01T23:50:17;7.95;;;3.33;;
55720;SDS011;41626;53.098;6.168;2023-04-01T23:52:48;4.72;;;3.20;;
55720;SDS011;41626;53.098;6.168;2023-04-01T23:55:19;5.80;;;2.85;;
